Terminal Aerodrome Forecast
Issued by NWS

Home | Current Version | Previous Version | Text Only | Print | Product List | Glossary On
Versions: 1 2 3 4 5 6 7 8 9 10 11 12 13 14 15 16 17
000
FTUS42 KKEY 240257 AAA
TAFMTH
TAF AMD
KMTH 240257Z 2403/2424 VRB06KT 6SM -RA SCT020 SCT050 BKN100
     FM240400 25006KT P6SM VCSH SCT020 BKN050 OVC100
     FM241500 28007KT P6SM VCSH SCT020 SCT040 OVC100=

USA.gov is the U.S. government's official web portal to all federal, state and local government web resources and services.